createdAt,value
2022-11-27T00:09:35.620Z,11.50
2022-11-27T00:19:39.063Z,13.77
2022-11-27T00:29:44.024Z,12.37
2022-11-27T00:39:48.519Z,10.53
2022-11-27T00:49:52.991Z,12.97
2022-11-27T00:59:56.158Z,14.03
2022-11-27T01:10:00.720Z,16.23
2022-11-27T01:20:03.744Z,11.63
2022-11-27T01:30:09.745Z,13.07
2022-11-27T01:40:13.452Z,10.83
2022-11-27T01:50:23.451Z,12.60
2022-11-27T02:00:27.185Z,17.00
2022-11-27T02:10:45.629Z,13.80
2022-11-27T02:20:55.401Z,17.13
2022-11-27T02:31:05.430Z,17.13
2022-11-27T02:41:13.853Z,17.70
2022-11-27T02:51:21.842Z,17.83
2022-11-27T03:01:28.794Z,19.60
2022-11-27T03:11:33.561Z,17.70
2022-11-27T03:21:40.419Z,18.00
2022-11-27T03:31:45.392Z,22.07
2022-11-27T03:41:55.547Z,18.93
2022-11-27T03:52:08.930Z,21.30
2022-11-27T04:02:13.957Z,23.13
2022-11-27T04:12:18.243Z,23.30
2022-11-27T04:22:21.109Z,24.03
2022-11-27T04:32:25.498Z,22.23
2022-11-27T04:42:28.664Z,17.00
2022-11-27T04:52:33.032Z,18.17
2022-11-27T05:02:36.152Z,16.53
2022-11-27T05:12:40.625Z,19.87
2022-11-27T05:22:44.283Z,18.30
2022-11-27T05:32:48.653Z,15.03
2022-11-27T05:42:51.797Z,10.23
2022-11-27T05:52:56.127Z,11.77
2022-11-27T06:02:59.301Z,18.07
2022-11-27T06:13:03.738Z,17.50
2022-11-27T06:23:06.693Z,10.57
2022-11-27T06:33:11.090Z,8.43
2022-11-27T06:43:13.951Z,7.53
2022-11-27T06:53:18.604Z,8.47
2022-11-27T07:03:22.552Z,9.90
2022-11-27T07:13:26.898Z,11.23
2022-11-27T07:23:29.911Z,8.63
2022-11-27T07:33:34.322Z,11.07
2022-11-27T07:43:38.642Z,8.40
2022-11-27T07:53:43.628Z,9.17
2022-11-27T08:03:47.171Z,6.87
2022-11-27T08:13:52.285Z,13.20
2022-11-27T08:23:55.804Z,5.20
2022-11-27T08:34:00.239Z,6.80
2022-11-27T08:44:06.771Z,8.63
2022-11-27T08:54:13.778Z,8.20
2022-11-27T09:04:16.761Z,7.57
2022-11-27T09:14:21.095Z,9.90
2022-11-27T09:24:25.015Z,8.17
2022-11-27T09:34:32.292Z,8.10
2022-11-27T09:44:45.268Z,10.10
2022-11-27T09:54:57.095Z,8.95
2022-11-27T10:05:17.851Z,8.60
2022-11-27T10:15:32.990Z,7.63
2022-11-27T10:25:40.999Z,7.47
2022-11-27T10:35:49.051Z,6.57
2022-11-27T10:45:58.391Z,8.70
2022-11-27T10:56:29.003Z,10.48
2022-11-27T11:06:35.226Z,6.90
2022-11-27T11:16:44.302Z,7.30
2022-11-27T11:26:50.434Z,8.17
2022-11-27T11:37:04.552Z,9.53
2022-11-27T11:47:07.943Z,9.03
2022-11-27T11:57:29.026Z,8.20
2022-11-27T12:07:51.965Z,7.00
2022-11-27T12:18:01.713Z,8.90
2022-11-27T12:38:45.414Z,6.73
2022-11-27T12:48:54.613Z,9.03
2022-11-27T12:59:05.886Z,5.28
2022-11-27T13:09:14.961Z,9.20
2022-11-27T13:19:26.220Z,5.88
2022-11-27T13:29:33.382Z,8.40
2022-11-27T13:39:39.981Z,6.17
2022-11-27T13:49:43.470Z,6.10
2022-11-27T13:59:59.294Z,9.90
2022-11-27T14:10:10.135Z,6.87
2022-11-27T14:20:25.511Z,9.40
2022-11-27T14:30:36.001Z,8.40
2022-11-27T14:40:40.163Z,7.50
2022-11-27T14:50:43.247Z,12.57
2022-11-27T15:00:56.568Z,8.75
2022-11-27T15:11:01.616Z,10.27
2022-11-27T15:21:11.616Z,8.83
2022-11-27T15:31:30.038Z,8.50
2022-11-27T15:41:38.344Z,8.57
2022-11-27T15:51:44.441Z,13.87
2022-11-27T16:01:49.486Z,11.10
2022-11-27T16:11:52.844Z,10.67
2022-11-27T16:21:57.834Z,12.03
2022-11-27T16:32:01.265Z,7.73
2022-11-27T16:42:05.942Z,12.90
2022-11-27T16:52:11.187Z,11.93
2022-11-27T17:02:15.743Z,11.20
2022-11-27T17:12:19.268Z,12.27
2022-11-27T17:22:23.920Z,10.03
2022-11-27T17:32:26.968Z,9.63
2022-11-27T17:42:31.432Z,10.90
2022-11-27T17:52:34.141Z,8.73
2022-11-27T18:02:39.117Z,10.80
2022-11-27T18:12:42.228Z,13.10
2022-11-27T18:22:46.713Z,12.97
2022-11-27T18:32:49.973Z,11.53
2022-11-27T18:42:54.200Z,13.70
2022-11-27T18:52:58.821Z,18.97
2022-11-27T19:03:03.284Z,14.47
2022-11-27T19:13:06.559Z,16.93
2022-11-27T19:23:11.686Z,14.87
2022-11-27T19:33:15.340Z,17.43
2022-11-27T19:43:19.844Z,14.60
2022-11-27T19:53:23.208Z,13.43
2022-11-27T20:03:28.022Z,12.13
2022-11-27T20:13:31.585Z,16.13
2022-11-27T20:23:35.970Z,17.10
2022-11-27T20:33:39.714Z,13.57
2022-11-27T20:43:44.272Z,10.33
2022-11-27T20:53:49.691Z,10.33
2022-11-27T21:03:55.195Z,10.47
2022-11-27T21:14:02.721Z,10.73
2022-11-27T21:24:08.335Z,8.93
2022-11-27T21:34:13.618Z,11.37
2022-11-27T21:44:18.833Z,8.43
2022-11-27T21:54:22.937Z,9.30
2022-11-27T22:04:27.785Z,9.47
2022-11-27T22:14:31.282Z,9.30
2022-11-27T22:24:36.328Z,12.70
2022-11-27T22:34:41.177Z,9.67
2022-11-27T22:44:46.375Z,11.23
2022-11-27T22:54:49.380Z,9.23
2022-11-27T23:04:53.969Z,10.37
2022-11-27T23:14:57.160Z,8.40
2022-11-27T23:25:01.810Z,8.63
2022-11-27T23:35:04.917Z,8.37
2022-11-27T23:45:10.531Z,9.40
2022-11-27T23:55:13.614Z,11.57
